sensor_id;sensor_type;location;lat;lon;timestamp;pressure;altitude;pressure_sealevel;temperature;humidity
28606;BME280;46498;49.968;7.754;2022-08-07T00:02:10;97945.00;;;15.62;44.76
28606;BME280;46498;49.968;7.754;2022-08-07T00:07:41;97948.00;;;15.48;44.84
28606;BME280;46498;49.968;7.754;2022-08-07T00:12:43;97935.00;;;15.50;44.69
28606;BME280;46498;49.968;7.754;2022-08-07T00:18:01;97925.00;;;15.51;44.63
28606;BME280;46498;49.968;7.754;2022-08-07T00:23:03;97923.00;;;15.55;44.65
28606;BME280;46498;49.968;7.754;2022-08-07T00:28:09;97927.00;;;15.47;44.78
28606;BME280;46498;49.968;7.754;2022-08-07T00:33:11;97914.00;;;15.39;45.01
28606;BME280;46498;49.968;7.754;2022-08-07T00:38:12;97918.00;;;15.45;44.75
28606;BME280;46498;49.968;7.754;2022-08-07T00:43:14;97919.00;;;15.35;44.96
28606;BME280;46498;49.968;7.754;2022-08-07T00:49:02;97912.00;;;15.38;45.01
28606;BME280;46498;49.968;7.754;2022-08-07T00:54:04;97901.00;;;15.34;44.99
28606;BME280;46498;49.968;7.754;2022-08-07T00:59:05;97910.00;;;15.27;45.48
28606;BME280;46498;49.968;7.754;2022-08-07T01:04:07;97900.00;;;15.21;45.78
28606;BME280;46498;49.968;7.754;2022-08-07T01:09:08;97900.00;;;15.02;46.23
28606;BME280;46498;49.968;7.754;2022-08-07T01:15:04;97894.00;;;15.00;46.42
28606;BME280;46498;49.968;7.754;2022-08-07T01:20:08;97884.00;;;15.01;46.02
28606;BME280;46498;49.968;7.754;2022-08-07T01:25:10;97882.00;;;15.11;45.83
28606;BME280;46498;49.968;7.754;2022-08-07T01:30:57;97887.00;;;15.04;45.92
28606;BME280;46498;49.968;7.754;2022-08-07T01:36:05;97875.00;;;15.11;45.79
28606;BME280;46498;49.968;7.754;2022-08-07T01:41:14;97884.00;;;15.13;45.64
28606;BME280;46498;49.968;7.754;2022-08-07T01:46:28;97880.00;;;15.03;45.82
28606;BME280;46498;49.968;7.754;2022-08-07T01:51:32;97869.00;;;15.03;45.90
28606;BME280;46498;49.968;7.754;2022-08-07T01:57:09;97875.00;;;15.07;45.74
28606;BME280;46498;49.968;7.754;2022-08-07T02:03:10;97867.00;;;15.04;45.90
28606;BME280;46498;49.968;7.754;2022-08-07T02:08:26;97864.00;;;15.02;45.91
28606;BME280;46498;49.968;7.754;2022-08-07T02:13:30;97872.00;;;14.94;46.16
28606;BME280;46498;49.968;7.754;2022-08-07T02:19:03;97872.00;;;14.94;46.19
28606;BME280;46498;49.968;7.754;2022-08-07T02:25:07;97867.00;;;14.91;46.34
28606;BME280;46498;49.968;7.754;2022-08-07T02:30:19;97869.00;;;14.92;46.44
28606;BME280;46498;49.968;7.754;2022-08-07T02:35:21;97872.00;;;14.86;46.47
28606;BME280;46498;49.968;7.754;2022-08-07T02:41:38;97873.00;;;14.91;46.42
28606;BME280;46498;49.968;7.754;2022-08-07T02:46:48;97867.00;;;14.44;47.95
28606;BME280;46498;49.968;7.754;2022-08-07T02:51:56;97866.00;;;14.42;48.54
28606;BME280;46498;49.968;7.754;2022-08-07T02:57:00;97860.00;;;14.46;47.93
28606;BME280;46498;49.968;7.754;2022-08-07T03:02:02;97853.00;;;14.44;48.01
28606;BME280;46498;49.968;7.754;2022-08-07T03:07:04;97854.00;;;14.37;48.26
28606;BME280;46498;49.968;7.754;2022-08-07T03:12:13;97842.00;;;14.40;48.15
28606;BME280;46498;49.968;7.754;2022-08-07T03:17:33;97844.00;;;14.49;48.10
28606;BME280;46498;49.968;7.754;2022-08-07T03:22:56;97836.00;;;14.36;48.34
28606;BME280;46498;49.968;7.754;2022-08-07T03:27:59;97838.00;;;14.30;48.44
28606;BME280;46498;49.968;7.754;2022-08-07T03:33:39;97833.00;;;14.41;48.28
28606;BME280;46498;49.968;7.754;2022-08-07T03:38:42;97831.00;;;14.33;48.63
28606;BME280;46498;49.968;7.754;2022-08-07T03:43:45;97828.00;;;14.24;48.91
28606;BME280;46498;49.968;7.754;2022-08-07T03:49:00;97829.00;;;14.07;49.51
28606;BME280;46498;49.968;7.754;2022-08-07T03:54:08;97833.00;;;14.03;49.52
28606;BME280;46498;49.968;7.754;2022-08-07T03:59:55;97824.00;;;13.97;50.08
28606;BME280;46498;49.968;7.754;2022-08-07T04:05:19;97823.00;;;13.94;49.94
28606;BME280;46498;49.968;7.754;2022-08-07T04:10:31;97823.00;;;14.07;49.85
28606;BME280;46498;49.968;7.754;2022-08-07T04:15:39;97828.00;;;14.08;49.96
28606;BME280;46498;49.968;7.754;2022-08-07T04:20:43;97836.00;;;14.17;49.75
28606;BME280;46498;49.968;7.754;2022-08-07T04:25:56;97844.00;;;14.06;50.04
28606;BME280;46498;49.968;7.754;2022-08-07T04:30:58;97837.00;;;14.08;50.17
28606;BME280;46498;49.968;7.754;2022-08-07T04:36:06;97832.00;;;13.98;50.47
28606;BME280;46498;49.968;7.754;2022-08-07T04:41:09;97835.00;;;14.09;49.75
28606;BME280;46498;49.968;7.754;2022-08-07T04:46:38;97843.00;;;14.16;49.92
28606;BME280;46498;49.968;7.754;2022-08-07T04:52:30;97855.00;;;14.47;49.11
28606;BME280;46498;49.968;7.754;2022-08-07T04:57:58;97855.00;;;14.80;48.32
28606;BME280;46498;49.968;7.754;2022-08-07T05:03:59;97853.00;;;15.02;47.50
28606;BME280;46498;49.968;7.754;2022-08-07T05:09:41;97859.00;;;15.12;47.44
28606;BME280;46498;49.968;7.754;2022-08-07T05:14:50;97874.00;;;15.34;46.84
28606;BME280;46498;49.968;7.754;2022-08-07T05:20:07;97872.00;;;15.44;46.91
28606;BME280;46498;49.968;7.754;2022-08-07T05:25:14;97864.00;;;15.69;46.52
28606;BME280;46498;49.968;7.754;2022-08-07T05:30:39;97870.00;;;15.88;46.46
28606;BME280;46498;49.968;7.754;2022-08-07T05:35:44;97877.00;;;16.03;45.78
28606;BME280;46498;49.968;7.754;2022-08-07T05:40:46;97875.00;;;15.79;46.90
28606;BME280;46498;49.968;7.754;2022-08-07T05:45:54;97887.00;;;16.16;47.01
28606;BME280;46498;49.968;7.754;2022-08-07T05:50:59;97891.00;;;16.23;47.02
28606;BME280;46498;49.968;7.754;2022-08-07T05:56:04;97886.00;;;16.76;45.38
28606;BME280;46498;49.968;7.754;2022-08-07T06:01:10;97888.00;;;17.15;43.84
28606;BME280;46498;49.968;7.754;2022-08-07T06:06:14;97898.00;;;17.42;44.77
28606;BME280;46498;49.968;7.754;2022-08-07T06:11:20;97896.00;;;17.40;43.55
28606;BME280;46498;49.968;7.754;2022-08-07T06:16:23;97898.00;;;17.42;42.25
28606;BME280;46498;49.968;7.754;2022-08-07T06:21:31;97903.00;;;17.56;41.37
28606;BME280;46498;49.968;7.754;2022-08-07T06:27:29;97903.00;;;17.41;42.69
28606;BME280;46498;49.968;7.754;2022-08-07T06:33:01;97901.00;;;17.73;40.91
28606;BME280;46498;49.968;7.754;2022-08-07T06:38:05;97896.00;;;17.92;41.27
28606;BME280;46498;49.968;7.754;2022-08-07T06:43:10;97895.00;;;18.15;40.10
28606;BME280;46498;49.968;7.754;2022-08-07T06:48:40;97898.00;;;17.79;40.99
28606;BME280;46498;49.968;7.754;2022-08-07T06:53:46;97887.00;;;18.15;40.45
28606;BME280;46498;49.968;7.754;2022-08-07T07:00:36;97891.00;;;18.44;39.99
28606;BME280;46498;49.968;7.754;2022-08-07T07:05:39;97895.00;;;17.98;40.98
28606;BME280;46498;49.968;7.754;2022-08-07T07:11:07;97898.00;;;18.03;41.86
28606;BME280;46498;49.968;7.754;2022-08-07T07:17:16;97890.00;;;18.68;40.18
28606;BME280;46498;49.968;7.754;2022-08-07T07:22:22;97892.00;;;18.76;39.92
28606;BME280;46498;49.968;7.754;2022-08-07T07:29:11;97888.00;;;18.33;40.86
28606;BME280;46498;49.968;7.754;2022-08-07T07:34:59;97883.00;;;18.44;41.61
28606;BME280;46498;49.968;7.754;2022-08-07T07:40:06;97880.00;;;18.99;40.05
28606;BME280;46498;49.968;7.754;2022-08-07T07:45:17;97885.00;;;18.77;40.22
28606;BME280;46498;49.968;7.754;2022-08-07T07:50:23;97881.00;;;19.00;40.48
28606;BME280;46498;49.968;7.754;2022-08-07T07:55:38;97882.00;;;18.88;40.55
28606;BME280;46498;49.968;7.754;2022-08-07T08:00:56;97882.00;;;18.91;41.20
28606;BME280;46498;49.968;7.754;2022-08-07T08:05:59;97887.00;;;19.21;40.46
28606;BME280;46498;49.968;7.754;2022-08-07T08:11:03;97876.00;;;19.53;40.71
28606;BME280;46498;49.968;7.754;2022-08-07T08:16:11;97878.00;;;19.40;41.33
28606;BME280;46498;49.968;7.754;2022-08-07T08:21:19;97874.00;;;19.73;40.12
28606;BME280;46498;49.968;7.754;2022-08-07T08:27:05;97871.00;;;19.41;41.79
28606;BME280;46498;49.968;7.754;2022-08-07T08:32:11;97871.00;;;19.34;41.03
28606;BME280;46498;49.968;7.754;2022-08-07T08:37:20;97864.00;;;19.26;42.11
28606;BME280;46498;49.968;7.754;2022-08-07T08:52:50;97864.00;;;19.79;42.80
28606;BME280;46498;49.968;7.754;2022-08-07T09:01:01;97856.00;;;19.99;43.79
28606;BME280;46498;49.968;7.754;2022-08-07T09:06:25;97848.00;;;20.15;43.34
28606;BME280;46498;49.968;7.754;2022-08-07T09:11:57;97857.00;;;20.37;41.37
28606;BME280;46498;49.968;7.754;2022-08-07T09:18:18;97847.00;;;20.34;44.09
28606;BME280;46498;49.968;7.754;2022-08-07T09:25:20;97847.00;;;20.39;42.45
28606;BME280;46498;49.968;7.754;2022-08-07T09:30:31;97846.00;;;21.35;40.63
28606;BME280;46498;49.968;7.754;2022-08-07T09:38:44;97837.00;;;21.21;40.04
28606;BME280;46498;49.968;7.754;2022-08-07T09:44:18;97842.00;;;21.81;39.45
28606;BME280;46498;49.968;7.754;2022-08-07T09:50:06;97835.00;;;22.26;38.89
28606;BME280;46498;49.968;7.754;2022-08-07T10:04:20;97824.00;;;23.13;36.71
28606;BME280;46498;49.968;7.754;2022-08-07T10:09:42;97810.00;;;22.85;37.67
28606;BME280;46498;49.968;7.754;2022-08-07T10:21:52;97804.00;;;22.71;37.35
28606;BME280;46498;49.968;7.754;2022-08-07T10:33:20;97781.00;;;23.03;37.34
28606;BME280;46498;49.968;7.754;2022-08-07T10:45:54;97779.00;;;23.85;32.92
28606;BME280;46498;49.968;7.754;2022-08-07T10:51:04;97771.00;;;24.50;32.01
28606;BME280;46498;49.968;7.754;2022-08-07T10:56:59;97766.00;;;23.90;33.27
28606;BME280;46498;49.968;7.754;2022-08-07T11:09:11;97763.00;;;24.03;34.06
28606;BME280;46498;49.968;7.754;2022-08-07T11:15:14;97758.00;;;25.24;31.45
28606;BME280;46498;49.968;7.754;2022-08-07T11:20:23;97770.00;;;24.65;32.20
28606;BME280;46498;49.968;7.754;2022-08-07T11:25:33;97757.00;;;25.16;31.93
28606;BME280;46498;49.968;7.754;2022-08-07T11:30:55;97746.00;;;24.04;33.55
28606;BME280;46498;49.968;7.754;2022-08-07T11:39:14;97743.00;;;23.75;33.57
28606;BME280;46498;49.968;7.754;2022-08-07T11:44:37;97737.00;;;24.44;33.01
28606;BME280;46498;49.968;7.754;2022-08-07T11:58:01;97716.00;;;25.17;31.83
28606;BME280;46498;49.968;7.754;2022-08-07T12:13:05;97721.00;;;24.44;31.95
28606;BME280;46498;49.968;7.754;2022-08-07T12:18:24;97713.00;;;24.28;32.52
28606;BME280;46498;49.968;7.754;2022-08-07T12:24:38;97707.00;;;25.56;30.59
28606;BME280;46498;49.968;7.754;2022-08-07T12:32:59;97712.00;;;25.54;30.56
28606;BME280;46498;49.968;7.754;2022-08-07T12:38:02;97698.00;;;24.10;32.48
28606;BME280;46498;49.968;7.754;2022-08-07T12:43:13;97698.00;;;24.11;32.63
28606;BME280;46498;49.968;7.754;2022-08-07T12:49:48;97691.00;;;24.74;31.70
28606;BME280;46498;49.968;7.754;2022-08-07T13:09:12;97683.00;;;25.26;30.39
28606;BME280;46498;49.968;7.754;2022-08-07T13:16:46;97682.00;;;25.02;30.86
28606;BME280;46498;49.968;7.754;2022-08-07T13:22:10;97671.00;;;25.27;30.58
28606;BME280;46498;49.968;7.754;2022-08-07T13:27:36;97662.00;;;24.98;30.72
28606;BME280;46498;49.968;7.754;2022-08-07T13:39:46;97662.00;;;24.51;31.21
28606;BME280;46498;49.968;7.754;2022-08-07T13:45:44;97648.00;;;25.12;30.96
28606;BME280;46498;49.968;7.754;2022-08-07T13:51:26;97642.00;;;25.09;30.61
28606;BME280;46498;49.968;7.754;2022-08-07T13:57:32;97647.00;;;25.68;29.91
28606;BME280;46498;49.968;7.754;2022-08-07T14:02:40;97648.00;;;24.98;29.92
28606;BME280;46498;49.968;7.754;2022-08-07T14:07:53;97638.00;;;23.55;31.44
28606;BME280;46498;49.968;7.754;2022-08-07T14:13:02;97627.00;;;23.99;32.12
28606;BME280;46498;49.968;7.754;2022-08-07T14:18:14;97629.00;;;25.33;29.76
28606;BME280;46498;49.968;7.754;2022-08-07T14:23:34;97621.00;;;24.81;29.97
28606;BME280;46498;49.968;7.754;2022-08-07T14:29:04;97632.00;;;24.93;29.92
28606;BME280;46498;49.968;7.754;2022-08-07T14:35:08;97610.00;;;25.53;29.26
28606;BME280;46498;49.968;7.754;2022-08-07T14:40:14;97629.00;;;25.07;29.99
28606;BME280;46498;49.968;7.754;2022-08-07T14:45:35;97615.00;;;24.28;30.64
28606;BME280;46498;49.968;7.754;2022-08-07T14:50:49;97606.00;;;24.54;30.62
28606;BME280;46498;49.968;7.754;2022-08-07T14:55:52;97611.00;;;24.85;30.00
28606;BME280;46498;49.968;7.754;2022-08-07T15:57:00;97607.00;;;25.27;29.83
28606;BME280;46498;49.968;7.754;2022-08-07T16:02:02;97577.00;;;25.79;26.68
28606;BME280;46498;49.968;7.754;2022-08-07T16:07:07;97569.00;;;25.70;27.22
28606;BME280;46498;49.968;7.754;2022-08-07T16:18:00;97577.00;;;25.26;27.05
28606;BME280;46498;49.968;7.754;2022-08-07T16:24:58;97568.00;;;25.35;26.81
28606;BME280;46498;49.968;7.754;2022-08-07T16:30:13;97571.00;;;24.68;27.43
28606;BME280;46498;49.968;7.754;2022-08-07T16:35:36;97573.00;;;24.93;27.07
28606;BME280;46498;49.968;7.754;2022-08-07T16:50:23;97578.00;;;24.78;26.61
28606;BME280;46498;49.968;7.754;2022-08-07T17:01:36;97573.00;;;24.46;26.73
28606;BME280;46498;49.968;7.754;2022-08-07T17:07:21;97570.00;;;24.29;26.72
28606;BME280;46498;49.968;7.754;2022-08-07T17:13:03;97574.00;;;24.03;26.82
28606;BME280;46498;49.968;7.754;2022-08-07T17:18:34;97568.00;;;23.92;27.13
28606;BME280;46498;49.968;7.754;2022-08-07T17:30:26;97568.00;;;23.96;27.54
28606;BME280;46498;49.968;7.754;2022-08-07T17:35:38;97571.00;;;23.83;27.46
28606;BME280;46498;49.968;7.754;2022-08-07T17:41:15;97575.00;;;23.78;27.88
28606;BME280;46498;49.968;7.754;2022-08-07T17:47:10;97575.00;;;23.64;28.01
28606;BME280;46498;49.968;7.754;2022-08-07T17:53:07;97585.00;;;23.49;28.17
28606;BME280;46498;49.968;7.754;2022-08-07T18:00:23;97580.00;;;23.35;28.38
28606;BME280;46498;49.968;7.754;2022-08-07T18:05:40;97585.00;;;23.16;28.58
28606;BME280;46498;49.968;7.754;2022-08-07T18:11:19;97585.00;;;22.97;29.00
28606;BME280;46498;49.968;7.754;2022-08-07T18:17:35;97580.00;;;22.84;29.48
28606;BME280;46498;49.968;7.754;2022-08-07T18:26:06;97597.00;;;22.54;30.25
28606;BME280;46498;49.968;7.754;2022-08-07T18:31:25;97593.00;;;22.55;30.48
28606;BME280;46498;49.968;7.754;2022-08-07T18:38:44;97607.00;;;22.28;31.24
28606;BME280;46498;49.968;7.754;2022-08-07T18:44:10;97607.00;;;22.09;31.77
28606;BME280;46498;49.968;7.754;2022-08-07T18:49:26;97615.00;;;21.74;32.80
28606;BME280;46498;49.968;7.754;2022-08-07T18:57:23;97614.00;;;21.29;33.83
28606;BME280;46498;49.968;7.754;2022-08-07T19:02:40;97615.00;;;20.87;34.53
28606;BME280;46498;49.968;7.754;2022-08-07T19:08:06;97622.00;;;20.94;34.65
28606;BME280;46498;49.968;7.754;2022-08-07T19:22:19;97624.00;;;20.37;35.76
28606;BME280;46498;49.968;7.754;2022-08-07T19:27:34;97634.00;;;20.25;35.86
28606;BME280;46498;49.968;7.754;2022-08-07T19:36:01;97634.00;;;20.04;36.79
28606;BME280;46498;49.968;7.754;2022-08-07T19:41:03;97645.00;;;19.68;36.77
28606;BME280;46498;49.968;7.754;2022-08-07T19:46:07;97655.00;;;19.61;36.90
28606;BME280;46498;49.968;7.754;2022-08-07T19:51:15;97663.00;;;19.59;36.98
28606;BME280;46498;49.968;7.754;2022-08-07T19:56:27;97668.00;;;19.33;37.00
28606;BME280;46498;49.968;7.754;2022-08-07T20:03:17;97678.00;;;19.40;36.52
28606;BME280;46498;49.968;7.754;2022-08-07T20:08:38;97669.00;;;19.43;35.85
28606;BME280;46498;49.968;7.754;2022-08-07T20:13:51;97670.00;;;19.56;36.95
28606;BME280;46498;49.968;7.754;2022-08-07T20:18:55;97676.00;;;19.49;37.12
28606;BME280;46498;49.968;7.754;2022-08-07T20:23:59;97681.00;;;19.56;37.13
28606;BME280;46498;49.968;7.754;2022-08-07T20:29:05;97673.00;;;19.36;37.97
28606;BME280;46498;49.968;7.754;2022-08-07T20:34:52;97675.00;;;19.38;37.75
28606;BME280;46498;49.968;7.754;2022-08-07T20:39:56;97675.00;;;19.45;37.64
28606;BME280;46498;49.968;7.754;2022-08-07T20:45:06;97668.00;;;19.47;37.82
28606;BME280;46498;49.968;7.754;2022-08-07T20:51:27;97680.00;;;19.43;37.94
28606;BME280;46498;49.968;7.754;2022-08-07T20:56:33;97681.00;;;19.41;38.19
28606;BME280;46498;49.968;7.754;2022-08-07T21:01:47;97677.00;;;19.37;38.41
28606;BME280;46498;49.968;7.754;2022-08-07T21:06:58;97674.00;;;19.44;38.52
28606;BME280;46498;49.968;7.754;2022-08-07T21:12:15;97671.00;;;19.28;38.88
28606;BME280;46498;49.968;7.754;2022-08-07T21:17:34;97675.00;;;19.20;39.21
28606;BME280;46498;49.968;7.754;2022-08-07T21:23:42;97672.00;;;19.11;39.50
28606;BME280;46498;49.968;7.754;2022-08-07T21:28:56;97678.00;;;19.13;39.56
28606;BME280;46498;49.968;7.754;2022-08-07T21:36:52;97673.00;;;19.11;39.73
28606;BME280;46498;49.968;7.754;2022-08-07T21:42:31;97668.00;;;18.98;40.30
28606;BME280;46498;49.968;7.754;2022-08-07T22:02:53;97675.00;;;18.86;41.08
28606;BME280;46498;49.968;7.754;2022-08-07T22:07:56;97675.00;;;18.81;41.16
28606;BME280;46498;49.968;7.754;2022-08-07T22:13:11;97688.00;;;18.75;41.35
28606;BME280;46498;49.968;7.754;2022-08-07T22:18:22;97690.00;;;18.48;41.98
28606;BME280;46498;49.968;7.754;2022-08-07T22:23:43;97690.00;;;18.58;41.74
28606;BME280;46498;49.968;7.754;2022-08-07T22:29:36;97690.00;;;18.42;41.91
28606;BME280;46498;49.968;7.754;2022-08-07T22:34:53;97696.00;;;18.55;41.58
28606;BME280;46498;49.968;7.754;2022-08-07T22:40:10;97693.00;;;18.43;41.78
28606;BME280;46498;49.968;7.754;2022-08-07T22:45:16;97699.00;;;18.50;41.71
28606;BME280;46498;49.968;7.754;2022-08-07T22:52:25;97702.00;;;18.41;41.37
28606;BME280;46498;49.968;7.754;2022-08-07T23:13:37;97707.00;;;18.16;41.97
28606;BME280;46498;49.968;7.754;2022-08-07T23:26:20;97706.00;;;18.12;41.15
28606;BME280;46498;49.968;7.754;2022-08-07T23:45:30;97695.00;;;17.89;41.50
28606;BME280;46498;49.968;7.754;2022-08-07T23:51:15;97692.00;;;17.85;41.16
28606;BME280;46498;49.968;7.754;2022-08-07T23:58:20;97689.00;;;17.90;40.71
